sensor_id;sensor_type;location;lat;lon;timestamp;P1;durP1;ratioP1;P2;durP2;ratioP2
12052;SDS011;6087;48.982;12.064;2023-12-20T00:02:16;5.87;;;5.20;;
12052;SDS011;6087;48.982;12.064;2023-12-20T00:04:43;7.70;;;5.30;;
12052;SDS011;6087;48.982;12.064;2023-12-20T00:07:10;6.87;;;5.67;;
12052;SDS011;6087;48.982;12.064;2023-12-20T00:09:40;6.73;;;5.63;;
12052;SDS011;6087;48.982;12.064;2023-12-20T00:12:10;11.20;;;5.83;;
12052;SDS011;6087;48.982;12.064;2023-12-20T00:14:38;7.40;;;5.47;;
12052;SDS011;6087;48.982;12.064;2023-12-20T00:17:05;6.60;;;5.80;;
12052;SDS011;6087;48.982;12.064;2023-12-20T00:19:32;6.07;;;5.00;;
12052;SDS011;6087;48.982;12.064;2023-12-20T00:21:59;6.47;;;4.70;;
12052;SDS011;6087;48.982;12.064;2023-12-20T00:24:26;7.00;;;4.97;;
12052;SDS011;6087;48.982;12.064;2023-12-20T00:26:53;7.73;;;4.60;;
12052;SDS011;6087;48.982;12.064;2023-12-20T00:29:20;7.83;;;5.00;;
12052;SDS011;6087;48.982;12.064;2023-12-20T00:31:49;7.23;;;5.57;;
12052;SDS011;6087;48.982;12.064;2023-12-20T00:34:15;6.93;;;5.27;;
12052;SDS011;6087;48.982;12.064;2023-12-20T00:36:42;10.83;;;5.67;;
12052;SDS011;6087;48.982;12.064;2023-12-20T00:39:12;9.30;;;5.67;;
12052;SDS011;6087;48.982;12.064;2023-12-20T00:41:39;7.47;;;4.80;;
12052;SDS011;6087;48.982;12.064;2023-12-20T00:44:06;6.63;;;4.80;;
12052;SDS011;6087;48.982;12.064;2023-12-20T00:46:33;9.60;;;5.03;;
12052;SDS011;6087;48.982;12.064;2023-12-20T00:49:01;7.33;;;4.87;;
12052;SDS011;6087;48.982;12.064;2023-12-20T00:51:28;6.07;;;4.40;;
12052;SDS011;6087;48.982;12.064;2023-12-20T00:53:56;7.00;;;5.10;;
12052;SDS011;6087;48.982;12.064;2023-12-20T00:56:22;6.23;;;4.63;;
12052;SDS011;6087;48.982;12.064;2023-12-20T00:58:49;9.87;;;5.43;;
12052;SDS011;6087;48.982;12.064;2023-12-20T01:01:16;7.10;;;5.13;;
12052;SDS011;6087;48.982;12.064;2023-12-20T01:03:46;6.40;;;4.77;;
12052;SDS011;6087;48.982;12.064;2023-12-20T01:06:17;7.37;;;5.33;;
12052;SDS011;6087;48.982;12.064;2023-12-20T01:08:44;7.10;;;4.90;;
12052;SDS011;6087;48.982;12.064;2023-12-20T01:11:13;8.10;;;4.97;;
12052;SDS011;6087;48.982;12.064;2023-12-20T01:13:43;7.23;;;5.23;;
12052;SDS011;6087;48.982;12.064;2023-12-20T01:16:10;7.60;;;5.40;;
12052;SDS011;6087;48.982;12.064;2023-12-20T01:18:38;6.87;;;5.33;;
12052;SDS011;6087;48.982;12.064;2023-12-20T01:21:05;6.07;;;5.20;;
12052;SDS011;6087;48.982;12.064;2023-12-20T01:23:34;9.90;;;5.20;;
12052;SDS011;6087;48.982;12.064;2023-12-20T01:26:01;7.97;;;5.30;;
12052;SDS011;6087;48.982;12.064;2023-12-20T01:28:29;7.90;;;4.90;;
12052;SDS011;6087;48.982;12.064;2023-12-20T01:30:57;7.17;;;5.27;;
12052;SDS011;6087;48.982;12.064;2023-12-20T01:33:24;6.13;;;5.23;;
12052;SDS011;6087;48.982;12.064;2023-12-20T01:35:51;7.20;;;5.30;;
12052;SDS011;6087;48.982;12.064;2023-12-20T01:38:18;7.93;;;5.70;;
12052;SDS011;6087;48.982;12.064;2023-12-20T01:40:46;8.37;;;5.50;;
12052;SDS011;6087;48.982;12.064;2023-12-20T01:43:13;5.93;;;5.07;;
12052;SDS011;6087;48.982;12.064;2023-12-20T01:45:40;13.70;;;5.50;;
12052;SDS011;6087;48.982;12.064;2023-12-20T01:48:07;6.87;;;5.57;;
12052;SDS011;6087;48.982;12.064;2023-12-20T01:50:36;9.00;;;5.20;;
12052;SDS011;6087;48.982;12.064;2023-12-20T01:53:03;6.17;;;5.13;;
12052;SDS011;6087;48.982;12.064;2023-12-20T01:55:34;7.57;;;5.37;;
12052;SDS011;6087;48.982;12.064;2023-12-20T01:58:04;6.53;;;4.77;;
12052;SDS011;6087;48.982;12.064;2023-12-20T02:00:31;8.03;;;5.07;;
12052;SDS011;6087;48.982;12.064;2023-12-20T02:03:00;6.40;;;5.03;;
12052;SDS011;6087;48.982;12.064;2023-12-20T02:05:28;6.57;;;4.70;;
12052;SDS011;6087;48.982;12.064;2023-12-20T02:07:56;8.57;;;3.73;;
12052;SDS011;6087;48.982;12.064;2023-12-20T02:10:23;8.03;;;4.90;;
12052;SDS011;6087;48.982;12.064;2023-12-20T02:12:51;6.20;;;4.57;;
12052;SDS011;6087;48.982;12.064;2023-12-20T02:15:19;6.00;;;3.83;;
12052;SDS011;6087;48.982;12.064;2023-12-20T02:17:47;5.80;;;4.33;;
12052;SDS011;6087;48.982;12.064;2023-12-20T02:20:17;5.47;;;4.03;;
12052;SDS011;6087;48.982;12.064;2023-12-20T02:22:46;7.07;;;4.47;;
12052;SDS011;6087;48.982;12.064;2023-12-20T02:25:12;5.00;;;4.00;;
12052;SDS011;6087;48.982;12.064;2023-12-20T02:27:40;7.87;;;4.90;;
12052;SDS011;6087;48.982;12.064;2023-12-20T02:30:07;8.07;;;4.53;;
12052;SDS011;6087;48.982;12.064;2023-12-20T02:32:34;5.33;;;4.00;;
12052;SDS011;6087;48.982;12.064;2023-12-20T02:35:08;6.27;;;4.37;;
12052;SDS011;6087;48.982;12.064;2023-12-20T02:37:34;5.53;;;4.00;;
12052;SDS011;6087;48.982;12.064;2023-12-20T02:40:03;6.70;;;4.00;;
12052;SDS011;6087;48.982;12.064;2023-12-20T02:42:31;5.77;;;4.70;;
12052;SDS011;6087;48.982;12.064;2023-12-20T02:44:58;3.97;;;3.57;;
12052;SDS011;6087;48.982;12.064;2023-12-20T02:47:25;4.53;;;4.10;;
12052;SDS011;6087;48.982;12.064;2023-12-20T02:49:52;4.00;;;3.60;;
12052;SDS011;6087;48.982;12.064;2023-12-20T02:52:19;5.27;;;4.27;;
12052;SDS011;6087;48.982;12.064;2023-12-20T02:54:46;7.90;;;3.87;;
12052;SDS011;6087;48.982;12.064;2023-12-20T02:57:14;5.60;;;4.77;;
12052;SDS011;6087;48.982;12.064;2023-12-20T02:59:41;4.97;;;3.67;;
12052;SDS011;6087;48.982;12.064;2023-12-20T03:02:08;4.67;;;3.47;;
12052;SDS011;6087;48.982;12.064;2023-12-20T03:04:38;8.10;;;3.90;;
12052;SDS011;6087;48.982;12.064;2023-12-20T03:07:05;5.27;;;3.47;;
12052;SDS011;6087;48.982;12.064;2023-12-20T03:09:32;5.37;;;4.13;;
12052;SDS011;6087;48.982;12.064;2023-12-20T03:11:59;5.90;;;4.03;;
12052;SDS011;6087;48.982;12.064;2023-12-20T03:14:27;6.63;;;4.23;;
12052;SDS011;6087;48.982;12.064;2023-12-20T03:16:54;4.67;;;4.00;;
12052;SDS011;6087;48.982;12.064;2023-12-20T03:19:21;4.93;;;3.60;;
12052;SDS011;6087;48.982;12.064;2023-12-20T03:21:48;4.63;;;3.90;;
12052;SDS011;6087;48.982;12.064;2023-12-20T03:24:15;4.17;;;3.57;;
12052;SDS011;6087;48.982;12.064;2023-12-20T03:26:42;3.17;;;2.80;;
12052;SDS011;6087;48.982;12.064;2023-12-20T03:29:09;5.90;;;3.40;;
12052;SDS011;6087;48.982;12.064;2023-12-20T03:31:38;4.00;;;3.47;;
12052;SDS011;6087;48.982;12.064;2023-12-20T03:34:04;5.00;;;2.93;;
12052;SDS011;6087;48.982;12.064;2023-12-20T03:36:31;3.60;;;2.83;;
12052;SDS011;6087;48.982;12.064;2023-12-20T03:38:58;4.40;;;3.30;;
12052;SDS011;6087;48.982;12.064;2023-12-20T03:41:25;4.40;;;3.60;;
12052;SDS011;6087;48.982;12.064;2023-12-20T03:43:52;4.07;;;3.00;;
12052;SDS011;6087;48.982;12.064;2023-12-20T03:46:19;3.43;;;2.97;;
12052;SDS011;6087;48.982;12.064;2023-12-20T03:48:48;3.53;;;2.63;;
12052;SDS011;6087;48.982;12.064;2023-12-20T03:51:15;3.97;;;2.87;;
12052;SDS011;6087;48.982;12.064;2023-12-20T03:53:41;4.47;;;3.30;;
12052;SDS011;6087;48.982;12.064;2023-12-20T03:56:08;6.73;;;3.10;;
12052;SDS011;6087;48.982;12.064;2023-12-20T03:58:35;2.60;;;2.40;;
12052;SDS011;6087;48.982;12.064;2023-12-20T04:01:02;3.73;;;3.07;;
12052;SDS011;6087;48.982;12.064;2023-12-20T04:03:29;4.20;;;3.10;;
12052;SDS011;6087;48.982;12.064;2023-12-20T04:05:58;3.43;;;3.00;;
12052;SDS011;6087;48.982;12.064;2023-12-20T04:08:25;3.73;;;2.50;;
12052;SDS011;6087;48.982;12.064;2023-12-20T04:10:52;3.40;;;2.80;;
12052;SDS011;6087;48.982;12.064;2023-12-20T04:13:19;4.27;;;2.40;;
12052;SDS011;6087;48.982;12.064;2023-12-20T04:15:46;2.80;;;2.43;;
12052;SDS011;6087;48.982;12.064;2023-12-20T04:18:15;3.23;;;2.20;;
12052;SDS011;6087;48.982;12.064;2023-12-20T04:20:42;4.63;;;1.97;;
12052;SDS011;6087;48.982;12.064;2023-12-20T04:23:18;2.17;;;1.50;;
12052;SDS011;6087;48.982;12.064;2023-12-20T04:25:45;3.50;;;1.77;;
12052;SDS011;6087;48.982;12.064;2023-12-20T04:28:21;2.00;;;1.77;;
12052;SDS011;6087;48.982;12.064;2023-12-20T04:30:48;2.27;;;2.00;;
12052;SDS011;6087;48.982;12.064;2023-12-20T04:33:21;2.47;;;2.10;;
12052;SDS011;6087;48.982;12.064;2023-12-20T04:35:48;3.13;;;1.70;;
12052;SDS011;6087;48.982;12.064;2023-12-20T04:38:17;1.93;;;1.80;;
12052;SDS011;6087;48.982;12.064;2023-12-20T04:40:44;2.57;;;2.13;;
12052;SDS011;6087;48.982;12.064;2023-12-20T04:43:11;4.20;;;2.50;;
12052;SDS011;6087;48.982;12.064;2023-12-20T04:45:41;3.43;;;2.13;;
12052;SDS011;6087;48.982;12.064;2023-12-20T04:48:08;1.80;;;1.60;;
12052;SDS011;6087;48.982;12.064;2023-12-20T04:50:37;2.10;;;1.87;;
12052;SDS011;6087;48.982;12.064;2023-12-20T04:53:07;2.00;;;1.90;;
12052;SDS011;6087;48.982;12.064;2023-12-20T04:55:35;3.77;;;1.57;;
12052;SDS011;6087;48.982;12.064;2023-12-20T04:58:02;2.80;;;2.00;;
12052;SDS011;6087;48.982;12.064;2023-12-20T05:00:30;2.40;;;1.93;;
12052;SDS011;6087;48.982;12.064;2023-12-20T05:02:57;2.17;;;1.80;;
12052;SDS011;6087;48.982;12.064;2023-12-20T05:05:24;2.93;;;2.57;;
12052;SDS011;6087;48.982;12.064;2023-12-20T05:07:51;3.63;;;2.33;;
12052;SDS011;6087;48.982;12.064;2023-12-20T05:10:18;2.53;;;2.30;;
12052;SDS011;6087;48.982;12.064;2023-12-20T05:12:46;2.23;;;2.03;;
12052;SDS011;6087;48.982;12.064;2023-12-20T05:15:13;2.33;;;2.03;;
12052;SDS011;6087;48.982;12.064;2023-12-20T05:17:40;4.23;;;2.30;;
12052;SDS011;6087;48.982;12.064;2023-12-20T05:20:07;3.03;;;2.10;;
12052;SDS011;6087;48.982;12.064;2023-12-20T05:22:35;3.33;;;2.43;;
12052;SDS011;6087;48.982;12.064;2023-12-20T05:25:02;3.07;;;2.27;;
12052;SDS011;6087;48.982;12.064;2023-12-20T05:27:30;3.70;;;2.23;;
12052;SDS011;6087;48.982;12.064;2023-12-20T05:29:59;3.27;;;1.70;;
12052;SDS011;6087;48.982;12.064;2023-12-20T05:32:26;3.63;;;1.80;;
12052;SDS011;6087;48.982;12.064;2023-12-20T05:34:53;1.63;;;1.53;;
12052;SDS011;6087;48.982;12.064;2023-12-20T05:37:20;3.47;;;1.80;;
12052;SDS011;6087;48.982;12.064;2023-12-20T05:39:47;2.03;;;1.83;;
12052;SDS011;6087;48.982;12.064;2023-12-20T05:42:20;1.80;;;1.70;;
12052;SDS011;6087;48.982;12.064;2023-12-20T05:44:50;2.47;;;2.27;;
12052;SDS011;6087;48.982;12.064;2023-12-20T05:47:18;1.80;;;1.70;;
12052;SDS011;6087;48.982;12.064;2023-12-20T05:49:45;2.33;;;2.00;;
12052;SDS011;6087;48.982;12.064;2023-12-20T05:52:12;1.60;;;1.50;;
12052;SDS011;6087;48.982;12.064;2023-12-20T05:54:39;2.87;;;2.20;;
12052;SDS011;6087;48.982;12.064;2023-12-20T05:57:06;2.07;;;1.87;;
12052;SDS011;6087;48.982;12.064;2023-12-20T05:59:33;3.03;;;2.13;;
12052;SDS011;6087;48.982;12.064;2023-12-20T06:02:00;2.40;;;1.87;;
12052;SDS011;6087;48.982;12.064;2023-12-20T06:04:30;2.13;;;1.93;;
12052;SDS011;6087;48.982;12.064;2023-12-20T06:06:58;4.17;;;3.10;;
12052;SDS011;6087;48.982;12.064;2023-12-20T06:09:24;2.57;;;2.10;;
12052;SDS011;6087;48.982;12.064;2023-12-20T06:11:52;1.83;;;1.53;;
12052;SDS011;6087;48.982;12.064;2023-12-20T06:14:20;3.23;;;1.60;;
12052;SDS011;6087;48.982;12.064;2023-12-20T06:16:47;2.80;;;1.97;;
12052;SDS011;6087;48.982;12.064;2023-12-20T06:19:14;2.60;;;2.37;;
12052;SDS011;6087;48.982;12.064;2023-12-20T06:21:42;2.03;;;1.67;;
12052;SDS011;6087;48.982;12.064;2023-12-20T06:24:09;3.77;;;2.07;;
12052;SDS011;6087;48.982;12.064;2023-12-20T06:26:36;2.97;;;2.17;;
12052;SDS011;6087;48.982;12.064;2023-12-20T06:29:03;2.63;;;1.87;;
12052;SDS011;6087;48.982;12.064;2023-12-20T06:31:30;1.53;;;1.10;;
12052;SDS011;6087;48.982;12.064;2023-12-20T06:33:58;1.33;;;1.17;;
12052;SDS011;6087;48.982;12.064;2023-12-20T06:36:25;1.43;;;1.03;;
12052;SDS011;6087;48.982;12.064;2023-12-20T06:38:53;1.43;;;1.30;;
12052;SDS011;6087;48.982;12.064;2023-12-20T06:41:20;2.27;;;1.43;;
12052;SDS011;6087;48.982;12.064;2023-12-20T06:43:56;1.80;;;1.50;;
12052;SDS011;6087;48.982;12.064;2023-12-20T06:46:23;3.73;;;1.40;;
12052;SDS011;6087;48.982;12.064;2023-12-20T06:48:53;3.50;;;1.00;;
12052;SDS011;6087;48.982;12.064;2023-12-20T06:51:20;0.80;;;0.80;;
12052;SDS011;6087;48.982;12.064;2023-12-20T06:53:50;1.30;;;0.80;;
12052;SDS011;6087;48.982;12.064;2023-12-20T06:56:19;0.90;;;0.87;;
12052;SDS011;6087;48.982;12.064;2023-12-20T06:58:46;1.10;;;1.00;;
12052;SDS011;6087;48.982;12.064;2023-12-20T07:01:15;0.70;;;0.70;;
12052;SDS011;6087;48.982;12.064;2023-12-20T07:03:42;0.60;;;0.60;;
12052;SDS011;6087;48.982;12.064;2023-12-20T07:06:12;0.47;;;0.47;;
12052;SDS011;6087;48.982;12.064;2023-12-20T07:08:42;1.37;;;1.20;;
12052;SDS011;6087;48.982;12.064;2023-12-20T07:11:09;0.63;;;0.60;;
12052;SDS011;6087;48.982;12.064;2023-12-20T07:13:37;0.33;;;0.30;;
12052;SDS011;6087;48.982;12.064;2023-12-20T07:16:04;0.40;;;0.40;;
12052;SDS011;6087;48.982;12.064;2023-12-20T07:18:32;0.60;;;0.60;;
12052;SDS011;6087;48.982;12.064;2023-12-20T07:20:58;0.40;;;0.40;;
12052;SDS011;6087;48.982;12.064;2023-12-20T07:23:25;0.80;;;0.63;;
12052;SDS011;6087;48.982;12.064;2023-12-20T07:25:52;1.00;;;0.97;;
12052;SDS011;6087;48.982;12.064;2023-12-20T07:28:19;0.70;;;0.50;;
12052;SDS011;6087;48.982;12.064;2023-12-20T07:30:48;0.63;;;0.63;;
12052;SDS011;6087;48.982;12.064;2023-12-20T07:33:14;0.50;;;0.50;;
12052;SDS011;6087;48.982;12.064;2023-12-20T07:35:41;0.60;;;0.60;;
12052;SDS011;6087;48.982;12.064;2023-12-20T07:38:10;0.47;;;0.47;;
12052;SDS011;6087;48.982;12.064;2023-12-20T07:40:37;1.07;;;0.40;;
12052;SDS011;6087;48.982;12.064;2023-12-20T07:43:04;0.50;;;0.50;;
12052;SDS011;6087;48.982;12.064;2023-12-20T07:45:31;0.40;;;0.30;;
12052;SDS011;6087;48.982;12.064;2023-12-20T07:48:00;0.90;;;0.30;;
12052;SDS011;6087;48.982;12.064;2023-12-20T07:50:27;0.47;;;0.47;;
12052;SDS011;6087;48.982;12.064;2023-12-20T07:52:54;0.30;;;0.30;;
12052;SDS011;6087;48.982;12.064;2023-12-20T07:55:21;0.63;;;0.40;;
12052;SDS011;6087;48.982;12.064;2023-12-20T07:57:48;0.87;;;0.20;;
12052;SDS011;6087;48.982;12.064;2023-12-20T08:00:15;0.03;;;0.03;;
12052;SDS011;6087;48.982;12.064;2023-12-20T08:02:44;0.27;;;0.23;;
12052;SDS011;6087;48.982;12.064;2023-12-20T08:05:13;0.20;;;0.20;;
12052;SDS011;6087;48.982;12.064;2023-12-20T08:07:40;0.20;;;0.20;;
12052;SDS011;6087;48.982;12.064;2023-12-20T08:10:07;0.20;;;0.20;;
12052;SDS011;6087;48.982;12.064;2023-12-20T08:12:37;0.30;;;0.30;;
12052;SDS011;6087;48.982;12.064;2023-12-20T08:15:06;0.30;;;0.30;;
12052;SDS011;6087;48.982;12.064;2023-12-20T08:17:36;0.27;;;0.20;;
12052;SDS011;6087;48.982;12.064;2023-12-20T08:20:06;0.20;;;0.20;;
12052;SDS011;6087;48.982;12.064;2023-12-20T08:22:35;0.30;;;0.30;;
12052;SDS011;6087;48.982;12.064;2023-12-20T08:25:02;0.90;;;0.20;;
12052;SDS011;6087;48.982;12.064;2023-12-20T08:27:29;0.40;;;0.40;;
12052;SDS011;6087;48.982;12.064;2023-12-20T08:30:06;0.30;;;0.30;;
12052;SDS011;6087;48.982;12.064;2023-12-20T08:32:34;0.30;;;0.30;;
12052;SDS011;6087;48.982;12.064;2023-12-20T08:35:04;0.77;;;0.30;;
12052;SDS011;6087;48.982;12.064;2023-12-20T08:37:38;0.40;;;0.40;;
12052;SDS011;6087;48.982;12.064;2023-12-20T08:40:06;0.40;;;0.40;;
12052;SDS011;6087;48.982;12.064;2023-12-20T08:42:33;0.73;;;0.63;;
12052;SDS011;6087;48.982;12.064;2023-12-20T08:45:00;0.67;;;0.50;;
12052;SDS011;6087;48.982;12.064;2023-12-20T08:47:29;0.40;;;0.40;;
12052;SDS011;6087;48.982;12.064;2023-12-20T08:49:56;0.50;;;0.50;;
12052;SDS011;6087;48.982;12.064;2023-12-20T08:52:25;1.10;;;0.73;;
12052;SDS011;6087;48.982;12.064;2023-12-20T08:54:54;0.40;;;0.40;;
12052;SDS011;6087;48.982;12.064;2023-12-20T08:57:21;0.30;;;0.30;;
12052;SDS011;6087;48.982;12.064;2023-12-20T08:59:50;0.30;;;0.30;;
12052;SDS011;6087;48.982;12.064;2023-12-20T09:02:17;0.40;;;0.40;;
12052;SDS011;6087;48.982;12.064;2023-12-20T09:04:44;0.30;;;0.30;;
12052;SDS011;6087;48.982;12.064;2023-12-20T09:07:20;2.73;;;1.07;;
12052;SDS011;6087;48.982;12.064;2023-12-20T09:09:48;0.50;;;0.50;;
12052;SDS011;6087;48.982;12.064;2023-12-20T09:12:17;2.07;;;0.50;;
12052;SDS011;6087;48.982;12.064;2023-12-20T09:14:44;0.23;;;0.23;;
12052;SDS011;6087;48.982;12.064;2023-12-20T09:17:11;0.53;;;0.53;;
12052;SDS011;6087;48.982;12.064;2023-12-20T09:19:39;0.40;;;0.40;;
12052;SDS011;6087;48.982;12.064;2023-12-20T09:22:06;2.00;;;0.83;;
12052;SDS011;6087;48.982;12.064;2023-12-20T09:24:39;2.33;;;1.00;;
12052;SDS011;6087;48.982;12.064;2023-12-20T09:27:06;0.40;;;0.40;;
12052;SDS011;6087;48.982;12.064;2023-12-20T09:29:36;0.43;;;0.43;;
12052;SDS011;6087;48.982;12.064;2023-12-20T09:32:03;1.03;;;0.50;;
12052;SDS011;6087;48.982;12.064;2023-12-20T09:34:31;0.50;;;0.50;;
12052;SDS011;6087;48.982;12.064;2023-12-20T09:36:58;1.23;;;1.00;;
12052;SDS011;6087;48.982;12.064;2023-12-20T09:39:25;1.87;;;1.23;;
12052;SDS011;6087;48.982;12.064;2023-12-20T09:41:56;1.40;;;1.10;;
12052;SDS011;6087;48.982;12.064;2023-12-20T09:44:27;1.10;;;0.93;;
12052;SDS011;6087;48.982;12.064;2023-12-20T09:46:56;0.73;;;0.70;;
12052;SDS011;6087;48.982;12.064;2023-12-20T09:49:23;0.80;;;0.80;;
12052;SDS011;6087;48.982;12.064;2023-12-20T09:51:53;0.70;;;0.70;;
12052;SDS011;6087;48.982;12.064;2023-12-20T09:54:21;0.80;;;0.80;;
12052;SDS011;6087;48.982;12.064;2023-12-20T09:56:49;0.70;;;0.70;;
12052;SDS011;6087;48.982;12.064;2023-12-20T09:59:16;0.70;;;0.70;;
12052;SDS011;6087;48.982;12.064;2023-12-20T10:01:43;0.70;;;0.57;;
12052;SDS011;6087;48.982;12.064;2023-12-20T10:04:12;0.60;;;0.60;;
12052;SDS011;6087;48.982;12.064;2023-12-20T10:06:39;1.03;;;0.80;;
12052;SDS011;6087;48.982;12.064;2023-12-20T10:09:06;2.40;;;1.37;;
12052;SDS011;6087;48.982;12.064;2023-12-20T10:11:34;0.50;;;0.50;;
12052;SDS011;6087;48.982;12.064;2023-12-20T10:14:03;0.63;;;0.60;;
12052;SDS011;6087;48.982;12.064;2023-12-20T10:16:30;0.90;;;0.90;;
12052;SDS011;6087;48.982;12.064;2023-12-20T10:18:58;0.60;;;0.60;;
12052;SDS011;6087;48.982;12.064;2023-12-20T10:21:28;0.67;;;0.50;;
12052;SDS011;6087;48.982;12.064;2023-12-20T10:23:57;1.93;;;0.90;;
12052;SDS011;6087;48.982;12.064;2023-12-20T10:26:25;1.50;;;0.63;;
12052;SDS011;6087;48.982;12.064;2023-12-20T10:28:54;1.07;;;0.80;;
12052;SDS011;6087;48.982;12.064;2023-12-20T10:31:26;0.83;;;0.77;;
12052;SDS011;6087;48.982;12.064;2023-12-20T10:33:58;1.23;;;0.80;;
12052;SDS011;6087;48.982;12.064;2023-12-20T10:36:30;2.07;;;1.00;;
12052;SDS011;6087;48.982;12.064;2023-12-20T10:38:58;0.73;;;0.57;;
12052;SDS011;6087;48.982;12.064;2023-12-20T10:41:27;0.87;;;0.77;;
12052;SDS011;6087;48.982;12.064;2023-12-20T10:43:56;0.80;;;0.70;;
12052;SDS011;6087;48.982;12.064;2023-12-20T10:46:29;0.67;;;0.63;;
12052;SDS011;6087;48.982;12.064;2023-12-20T10:48:58;1.13;;;0.70;;
12052;SDS011;6087;48.982;12.064;2023-12-20T10:51:25;1.23;;;1.03;;
12052;SDS011;6087;48.982;12.064;2023-12-20T10:53:55;1.40;;;1.10;;
12052;SDS011;6087;48.982;12.064;2023-12-20T10:56:23;0.80;;;0.80;;
12052;SDS011;6087;48.982;12.064;2023-12-20T10:58:50;0.90;;;0.90;;
12052;SDS011;6087;48.982;12.064;2023-12-20T11:01:18;1.87;;;1.20;;
12052;SDS011;6087;48.982;12.064;2023-12-20T11:03:48;2.37;;;1.20;;
12052;SDS011;6087;48.982;12.064;2023-12-20T11:06:19;0.67;;;0.67;;
12052;SDS011;6087;48.982;12.064;2023-12-20T11:08:58;0.70;;;0.70;;
12052;SDS011;6087;48.982;12.064;2023-12-20T11:11:35;2.13;;;1.40;;
12052;SDS011;6087;48.982;12.064;2023-12-20T11:14:14;0.80;;;0.80;;
12052;SDS011;6087;48.982;12.064;2023-12-20T11:16:43;0.87;;;0.87;;
12052;SDS011;6087;48.982;12.064;2023-12-20T11:19:13;3.33;;;1.10;;
12052;SDS011;6087;48.982;12.064;2023-12-20T11:21:40;2.33;;;1.23;;
12052;SDS011;6087;48.982;12.064;2023-12-20T11:24:08;1.33;;;1.10;;
12052;SDS011;6087;48.982;12.064;2023-12-20T11:26:36;1.90;;;1.20;;
12052;SDS011;6087;48.982;12.064;2023-12-20T11:31:59;1.47;;;1.10;;
12052;SDS011;6087;48.982;12.064;2023-12-20T11:34:31;1.50;;;1.40;;
12052;SDS011;6087;48.982;12.064;2023-12-20T11:36:59;1.47;;;1.20;;
12052;SDS011;6087;48.982;12.064;2023-12-20T11:39:32;2.63;;;1.10;;
12052;SDS011;6087;48.982;12.064;2023-12-20T11:42:08;6.17;;;1.30;;
12052;SDS011;6087;48.982;12.064;2023-12-20T11:44:37;2.47;;;1.10;;
12052;SDS011;6087;48.982;12.064;2023-12-20T11:47:04;1.63;;;0.93;;
12052;SDS011;6087;48.982;12.064;2023-12-20T11:49:31;0.93;;;0.73;;
12052;SDS011;6087;48.982;12.064;2023-12-20T11:51:58;2.30;;;1.23;;
12052;SDS011;6087;48.982;12.064;2023-12-20T11:54:25;3.30;;;0.90;;
12052;SDS011;6087;48.982;12.064;2023-12-20T11:56:53;0.87;;;0.60;;
12052;SDS011;6087;48.982;12.064;2023-12-20T11:59:20;3.07;;;0.83;;
12052;SDS011;6087;48.982;12.064;2023-12-20T12:01:49;0.77;;;0.77;;
12052;SDS011;6087;48.982;12.064;2023-12-20T12:04:17;0.57;;;0.43;;
12052;SDS011;6087;48.982;12.064;2023-12-20T12:06:44;1.37;;;0.80;;
12052;SDS011;6087;48.982;12.064;2023-12-20T12:09:12;0.80;;;0.80;;
12052;SDS011;6087;48.982;12.064;2023-12-20T12:11:40;3.17;;;1.00;;
12052;SDS011;6087;48.982;12.064;2023-12-20T12:14:08;0.77;;;0.73;;
12052;SDS011;6087;48.982;12.064;2023-12-20T12:16:36;5.17;;;1.20;;
12052;SDS011;6087;48.982;12.064;2023-12-20T12:19:03;1.60;;;0.70;;
12052;SDS011;6087;48.982;12.064;2023-12-20T12:21:33;5.30;;;0.97;;
12052;SDS011;6087;48.982;12.064;2023-12-20T12:24:06;0.97;;;0.80;;
12052;SDS011;6087;48.982;12.064;2023-12-20T12:26:34;1.93;;;1.07;;
12052;SDS011;6087;48.982;12.064;2023-12-20T12:29:04;1.93;;;1.83;;
12052;SDS011;6087;48.982;12.064;2023-12-20T12:31:35;2.50;;;1.17;;
12052;SDS011;6087;48.982;12.064;2023-12-20T12:34:02;1.77;;;1.17;;
12052;SDS011;6087;48.982;12.064;2023-12-20T12:36:29;0.93;;;0.80;;
12052;SDS011;6087;48.982;12.064;2023-12-20T12:38:56;5.00;;;2.70;;
12052;SDS011;6087;48.982;12.064;2023-12-20T12:41:24;1.47;;;0.80;;
12052;SDS011;6087;48.982;12.064;2023-12-20T12:43:51;4.27;;;2.20;;
12052;SDS011;6087;48.982;12.064;2023-12-20T12:46:19;2.83;;;1.53;;
12052;SDS011;6087;48.982;12.064;2023-12-20T12:48:46;3.67;;;1.47;;
12052;SDS011;6087;48.982;12.064;2023-12-20T12:51:15;1.20;;;0.77;;
12052;SDS011;6087;48.982;12.064;2023-12-20T12:53:42;3.27;;;1.67;;
12052;SDS011;6087;48.982;12.064;2023-12-20T12:56:09;3.33;;;1.57;;
12052;SDS011;6087;48.982;12.064;2023-12-20T12:58:38;1.43;;;1.07;;
12052;SDS011;6087;48.982;12.064;2023-12-20T13:01:06;1.40;;;1.17;;
12052;SDS011;6087;48.982;12.064;2023-12-20T13:03:34;0.50;;;0.50;;
12052;SDS011;6087;48.982;12.064;2023-12-20T13:06:01;1.63;;;1.50;;
12052;SDS011;6087;48.982;12.064;2023-12-20T13:08:30;3.17;;;1.47;;
12052;SDS011;6087;48.982;12.064;2023-12-20T13:10:58;2.17;;;1.00;;
12052;SDS011;6087;48.982;12.064;2023-12-20T13:13:26;2.47;;;1.30;;
12052;SDS011;6087;48.982;12.064;2023-12-20T13:15:53;2.77;;;2.50;;
12052;SDS011;6087;48.982;12.064;2023-12-20T13:18:20;3.87;;;3.10;;
12052;SDS011;6087;48.982;12.064;2023-12-20T13:20:49;2.30;;;1.37;;
12052;SDS011;6087;48.982;12.064;2023-12-20T13:23:16;4.00;;;1.57;;
12052;SDS011;6087;48.982;12.064;2023-12-20T13:25:44;3.87;;;1.30;;
12052;SDS011;6087;48.982;12.064;2023-12-20T13:28:11;1.73;;;1.10;;
12052;SDS011;6087;48.982;12.064;2023-12-20T13:30:38;5.30;;;0.90;;
12052;SDS011;6087;48.982;12.064;2023-12-20T13:33:06;2.63;;;1.37;;
12052;SDS011;6087;48.982;12.064;2023-12-20T13:35:33;1.17;;;1.00;;
12052;SDS011;6087;48.982;12.064;2023-12-20T13:38:02;1.30;;;1.20;;
12052;SDS011;6087;48.982;12.064;2023-12-20T13:40:29;2.37;;;1.20;;
12052;SDS011;6087;48.982;12.064;2023-12-20T13:42:57;3.07;;;1.63;;
12052;SDS011;6087;48.982;12.064;2023-12-20T13:45:24;7.37;;;1.20;;
12052;SDS011;6087;48.982;12.064;2023-12-20T13:47:59;2.63;;;0.90;;
12052;SDS011;6087;48.982;12.064;2023-12-20T13:50:30;1.60;;;1.10;;
12052;SDS011;6087;48.982;12.064;2023-12-20T13:52:59;3.13;;;1.67;;
12052;SDS011;6087;48.982;12.064;2023-12-20T13:55:41;2.97;;;1.57;;
12052;SDS011;6087;48.982;12.064;2023-12-20T13:58:08;1.17;;;0.80;;
12052;SDS011;6087;48.982;12.064;2023-12-20T14:00:36;1.67;;;0.80;;
12052;SDS011;6087;48.982;12.064;2023-12-20T14:03:03;1.63;;;0.60;;
12052;SDS011;6087;48.982;12.064;2023-12-20T14:05:30;1.43;;;1.20;;
12052;SDS011;6087;48.982;12.064;2023-12-20T14:08:00;0.97;;;0.40;;
12052;SDS011;6087;48.982;12.064;2023-12-20T14:10:29;1.07;;;0.77;;
12052;SDS011;6087;48.982;12.064;2023-12-20T14:12:58;2.37;;;1.40;;
12052;SDS011;6087;48.982;12.064;2023-12-20T14:15:27;1.33;;;1.00;;
12052;SDS011;6087;48.982;12.064;2023-12-20T14:17:54;1.87;;;1.20;;
12052;SDS011;6087;48.982;12.064;2023-12-20T14:20:21;3.80;;;1.13;;
12052;SDS011;6087;48.982;12.064;2023-12-20T14:22:48;1.80;;;0.87;;
12052;SDS011;6087;48.982;12.064;2023-12-20T14:25:19;0.80;;;0.63;;
12052;SDS011;6087;48.982;12.064;2023-12-20T14:27:54;1.43;;;1.10;;
12052;SDS011;6087;48.982;12.064;2023-12-20T14:30:21;2.90;;;0.77;;
12052;SDS011;6087;48.982;12.064;2023-12-20T14:32:48;1.50;;;1.17;;
12052;SDS011;6087;48.982;12.064;2023-12-20T14:35:15;2.23;;;1.00;;
12052;SDS011;6087;48.982;12.064;2023-12-20T14:37:42;0.57;;;0.57;;
12052;SDS011;6087;48.982;12.064;2023-12-20T14:40:10;1.40;;;1.30;;
12052;SDS011;6087;48.982;12.064;2023-12-20T14:42:42;3.93;;;1.17;;
12052;SDS011;6087;48.982;12.064;2023-12-20T14:45:14;3.10;;;1.00;;
12052;SDS011;6087;48.982;12.064;2023-12-20T14:47:43;1.20;;;0.80;;
12052;SDS011;6087;48.982;12.064;2023-12-20T14:50:15;5.10;;;0.70;;
12052;SDS011;6087;48.982;12.064;2023-12-20T14:52:43;2.23;;;1.63;;
12052;SDS011;6087;48.982;12.064;2023-12-20T14:55:11;4.93;;;0.90;;
12052;SDS011;6087;48.982;12.064;2023-12-20T14:57:38;1.10;;;1.00;;